Impacts TAF Board INFO
FOR SITUATIONAL AWARENESS. NOT TO BE USED FOR FLIGHT PLANNING PURPOSES.
IDs:

KDCA - Washington/National, VA, US

Issued at 1125 UTC 21 May 2018
Updated at 1304 UTC 21 May 2018
Potential Impact None Slight Moderate High
Time<<22/14Z 22/15Z 22/16Z 22/17Z 22/18Z 22/19Z 22/20Z 22/21Z 22/22Z 22/23Z 23/00Z 23/01Z 23/02Z
Type PRVL PRVL PRVL PRVL
VIS >6 >6 >6 >6
CIG 20 20 20 20
Cover OVC OVC OVC OVC
FltCat MVFR MVFR MVFR MVFR
WX -- -- -- --
WDir 150 150 150 150
WSpd 5 5 5 5
WGst -- -- -- --

Raw TAF
KDCA 211125Z 2112/2218 06009KT P6SM SCT050 SCT200
  FM211900 12005KT P6SM SCT050 SCT200
  FM221100 15005KT P6SM OVC020


METAR Board
Radar Display
Forecast Discussion

FOR SITUATIONAL AWARENESS. NOT TO BE USED FOR FLIGHT PLANNING PURPOSES.